Time;durP1;ratioP1;P1;durP2;ratioP2;P2;SDS_P1;SDS_P2;PMS_P1;PMS_P2;Temp;Humidity;BMP_temperature;BMP_pressure;BME280_temperature;BME280_humidity;BME280_pressure;Samples;Min_cycle;Max_cycle;Signal;HPM_P1;HPM_P2
2023/12/03 00:00:48;;;;;;;;;;;19.20;51.50;;;;;;5039121;28;19929;-61
2023/12/03 00:03:14;;;;;;;;;;;19.20;51.50;;;;;;5057816;28;19936;-62
2023/12/03 00:05:39;;;;;;;;;;;19.20;51.50;;;;;;5057307;28;19932;-61
2023/12/03 00:08:05;;;;;;;;;;;19.10;51.40;;;;;;5056918;28;20039;-61
2023/12/03 00:10:30;;;;;;;;;;;19.10;51.40;;;;;;5058002;28;19925;-61
2023/12/03 00:12:56;;;;;;;;;;;19.10;51.40;;;;;;5058107;28;19924;-62
2023/12/03 00:15:22;;;;;;;;;;;19.10;51.50;;;;;;5057257;28;19924;-62
2023/12/03 00:17:47;;;;;;;;;;;19.10;51.40;;;;;;5058247;28;20061;-62
2023/12/03 00:20:13;;;;;;;;;;;19.10;51.40;;;;;;5057414;28;19929;-62
2023/12/03 00:22:38;;;;;;;;;;;19.10;51.40;;;;;;5074432;28;19925;-61
2023/12/03 00:25:04;;;;;;;;;;;19.00;51.30;;;;;;5057883;28;19928;-62
2023/12/03 00:27:30;;;;;;;;;;;19.10;51.30;;;;;;5075874;28;19993;-61
2023/12/03 00:29:55;;;;;;;;;;;19.10;51.30;;;;;;5056598;28;19928;-62
2023/12/03 00:32:20;;;;;;;;;;;19.10;51.30;;;;;;5057983;28;20016;-61
2023/12/03 00:34:46;;;;;;;;;;;19.00;51.30;;;;;;5056575;28;20015;-61
2023/12/03 00:37:11;;;;;;;;;;;19.00;51.20;;;;;;5055903;28;19979;-61
2023/12/03 00:39:37;;;;;;;;;;;19.00;51.30;;;;;;5074385;28;19954;-61
2023/12/03 00:42:02;;;;;;;;;;;19.00;51.20;;;;;;5075359;28;20015;-61
2023/12/03 00:44:28;;;;;;;;;;;19.00;51.20;;;;;;5075100;28;19978;-61
2023/12/03 00:46:53;;;;;;;;;;;19.00;51.20;;;;;;5057016;28;19928;-61
2023/12/03 00:49:19;;;;;;;;;;;19.00;51.20;;;;;;5057344;28;19925;-61
2023/12/03 00:51:44;;;;;;;;;;;19.00;51.20;;;;;;5057719;28;19932;-62
2023/12/03 00:54:10;;;;;;;;;;;19.00;51.20;;;;;;5056907;28;19981;-62
2023/12/03 00:56:35;;;;;;;;;;;18.90;51.10;;;;;;5057589;28;19925;-61
2023/12/03 00:59:01;;;;;;;;;;;18.90;51.10;;;;;;5074461;28;20390;-62
2023/12/03 01:01:26;;;;;;;;;;;18.90;51.10;;;;;;5057499;28;20299;-61
2023/12/03 01:03:52;;;;;;;;;;;18.90;51.10;;;;;;5074617;28;19971;-61
2023/12/03 01:06:17;;;;;;;;;;;18.90;51.10;;;;;;5073294;28;19933;-61
2023/12/03 01:08:43;;;;;;;;;;;18.90;51.20;;;;;;5074682;28;20291;-61
2023/12/03 01:11:09;;;;;;;;;;;18.90;51.30;;;;;;5072664;28;20295;-61
2023/12/03 01:13:34;;;;;;;;;;;18.90;51.20;;;;;;5056246;28;19970;-61
2023/12/03 01:16:00;;;;;;;;;;;18.90;51.20;;;;;;5056856;28;19925;-61
2023/12/03 01:18:25;;;;;;;;;;;18.90;51.10;;;;;;5056555;28;19930;-62
2023/12/03 01:20:51;;;;;;;;;;;18.80;51.10;;;;;;5074530;28;20015;-61
2023/12/03 01:23:16;;;;;;;;;;;18.80;51.10;;;;;;5074510;28;19931;-61
2023/12/03 01:25:42;;;;;;;;;;;18.80;51.00;;;;;;5055834;28;20376;-61
2023/12/03 01:28:07;;;;;;;;;;;18.80;51.10;;;;;;5074174;28;19999;-62
2023/12/03 01:30:33;;;;;;;;;;;18.80;51.00;;;;;;5074748;28;20007;-61
2023/12/03 01:32:58;;;;;;;;;;;18.80;51.10;;;;;;5073257;28;19927;-62
2023/12/03 01:35:24;;;;;;;;;;;18.80;51.10;;;;;;5056236;28;19971;-61
2023/12/03 01:37:49;;;;;;;;;;;18.80;51.10;;;;;;5073977;28;19974;-61
2023/12/03 01:40:15;;;;;;;;;;;18.80;51.10;;;;;;5073239;28;19921;-59
2023/12/03 01:42:40;;;;;;;;;;;18.80;51.10;;;;;;5074162;28;19931;-59
2023/12/03 01:45:06;;;;;;;;;;;18.80;51.10;;;;;;5055638;28;19924;-59
2023/12/03 01:47:32;;;;;;;;;;;18.70;51.00;;;;;;5073241;28;19973;-61
2023/12/03 01:50:07;;;;;;;;;;;18.70;51.00;;;;;;5055495;28;19924;-60
2023/12/03 01:52:35;;;;;;;;;;;18.70;51.00;;;;;;5055725;28;20005;-59
2023/12/03 01:55:01;;;;;;;;;;;18.70;51.00;;;;;;5037990;28;19986;-60
2023/12/03 01:57:27;;;;;;;;;;;18.70;51.00;;;;;;5055558;28;19964;-60
2023/12/03 01:59:52;;;;;;;;;;;18.70;51.00;;;;;;5039361;28;20004;-60
2023/12/03 02:02:18;;;;;;;;;;;18.70;51.00;;;;;;5055116;28;20304;-60
2023/12/03 02:04:43;;;;;;;;;;;18.70;50.90;;;;;;5056001;28;19963;-60
2023/12/03 02:07:09;;;;;;;;;;;18.70;50.90;;;;;;5054949;28;19931;-60
2023/12/03 02:09:34;;;;;;;;;;;18.70;51.00;;;;;;5073124;28;19932;-60
2023/12/03 02:11:59;;;;;;;;;;;18.70;51.00;;;;;;5073065;28;19993;-60
2023/12/03 02:14:25;;;;;;;;;;;18.70;51.00;;;;;;5054658;28;19925;-60
2023/12/03 02:16:50;;;;;;;;;;;18.70;51.00;;;;;;5056076;28;19929;-60
2023/12/03 02:19:16;;;;;;;;;;;18.70;50.90;;;;;;5073122;28;19931;-60
2023/12/03 02:21:41;;;;;;;;;;;18.70;50.90;;;;;;5054588;28;20386;-60
2023/12/03 02:24:07;;;;;;;;;;;18.70;51.00;;;;;;5072220;28;20323;-60
2023/12/03 02:26:33;;;;;;;;;;;18.70;51.00;;;;;;5073377;28;19924;-60
2023/12/03 02:28:58;;;;;;;;;;;18.70;51.00;;;;;;5072592;28;20406;-60
2023/12/03 02:31:24;;;;;;;;;;;18.70;50.90;;;;;;5072991;28;19928;-60
2023/12/03 02:34:05;;;;;;;;;;;18.70;50.90;;;;;;5072960;28;19967;-60
2023/12/03 02:36:30;;;;;;;;;;;18.70;50.90;;;;;;5053932;28;19970;-60
2023/12/03 02:38:56;;;;;;;;;;;18.70;50.90;;;;;;5055013;28;19928;-60
2023/12/03 02:41:21;;;;;;;;;;;18.80;50.90;;;;;;5072872;28;19924;-60
2023/12/03 02:43:47;;;;;;;;;;;18.70;50.80;;;;;;5054007;28;20396;-60
2023/12/03 02:46:12;;;;;;;;;;;18.70;50.90;;;;;;5072675;28;19932;-60
2023/12/03 02:48:38;;;;;;;;;;;18.70;50.80;;;;;;5055211;28;20396;-60
2023/12/03 02:51:03;;;;;;;;;;;18.80;50.90;;;;;;5053704;28;19925;-60
2023/12/03 02:53:29;;;;;;;;;;;18.80;50.90;;;;;;5073117;28;19928;-60
2023/12/03 02:55:54;;;;;;;;;;;18.80;50.90;;;;;;5054075;28;20010;-60
2023/12/03 02:58:20;;;;;;;;;;;18.80;50.90;;;;;;5054804;28;19947;-59
2023/12/03 03:00:46;;;;;;;;;;;18.80;50.80;;;;;;5046379;28;19925;-59
2023/12/03 03:03:11;;;;;;;;;;;18.80;50.80;;;;;;5033840;28;20284;-60
2023/12/03 03:05:37;;;;;;;;;;;18.80;50.80;;;;;;5050797;28;19932;-59
2023/12/03 03:08:02;;;;;;;;;;;18.80;50.80;;;;;;5050193;28;20007;-60
2023/12/03 03:10:28;;;;;;;;;;;18.90;50.80;;;;;;5054832;28;19924;-60
2023/12/03 03:12:53;;;;;;;;;;;18.90;50.80;;;;;;5054454;28;19924;-60
2023/12/03 03:15:19;;;;;;;;;;;18.90;50.80;;;;;;5072973;28;20364;-60
2023/12/03 03:17:44;;;;;;;;;;;18.80;50.70;;;;;;5071850;28;19933;-60
2023/12/03 03:20:10;;;;;;;;;;;18.90;50.70;;;;;;5054212;28;20031;-60
2023/12/03 03:22:36;;;;;;;;;;;18.90;50.70;;;;;;5054072;28;19930;-60
2023/12/03 03:25:03;;;;;;;;;;;18.90;50.80;;;;;;5053661;28;19925;-60
2023/12/03 03:27:28;;;;;;;;;;;18.90;50.70;;;;;;5054921;28;20042;-60
2023/12/03 03:29:53;;;;;;;;;;;18.90;50.70;;;;;;5054294;28;19971;-61
2023/12/03 03:32:19;;;;;;;;;;;18.90;50.70;;;;;;5072265;28;19931;-60
2023/12/03 03:34:45;;;;;;;;;;;18.90;50.70;;;;;;5073363;28;19937;-60
2023/12/03 03:37:10;;;;;;;;;;;18.90;50.70;;;;;;5076290;28;19928;-60
2023/12/03 03:39:35;;;;;;;;;;;18.90;50.70;;;;;;5076180;28;19925;-60
2023/12/03 03:42:01;;;;;;;;;;;18.90;50.60;;;;;;5075777;28;19925;-61
2023/12/03 03:44:26;;;;;;;;;;;18.90;50.60;;;;;;5075726;28;20271;-60
2023/12/03 03:46:52;;;;;;;;;;;18.90;50.60;;;;;;5075647;28;20019;-61
2023/12/03 03:49:17;;;;;;;;;;;18.90;50.70;;;;;;5058552;28;19982;-61
2023/12/03 03:51:43;;;;;;;;;;;19.00;50.70;;;;;;5057842;28;19932;-60
2023/12/03 03:54:08;;;;;;;;;;;19.00;50.70;;;;;;5075258;28;20018;-60
2023/12/03 03:56:34;;;;;;;;;;;19.00;50.70;;;;;;5076525;28;20407;-61
2023/12/03 03:58:59;;;;;;;;;;;19.00;50.60;;;;;;5075986;28;20368;-61
2023/12/03 04:01:25;;;;;;;;;;;19.00;50.60;;;;;;5075392;28;19935;-61
2023/12/03 04:03:51;;;;;;;;;;;19.00;50.60;;;;;;5076121;28;20452;-61
2023/12/03 04:06:16;;;;;;;;;;;19.00;50.60;;;;;;5075695;28;19927;-61
2023/12/03 04:08:42;;;;;;;;;;;19.00;50.60;;;;;;5056787;28;19939;-61
2023/12/03 04:11:07;;;;;;;;;;;19.00;50.60;;;;;;5057586;28;19960;-60
2023/12/03 04:13:33;;;;;;;;;;;19.10;50.60;;;;;;5058235;28;19968;-61
2023/12/03 04:15:58;;;;;;;;;;;19.10;50.60;;;;;;5074548;28;20296;-61
2023/12/03 04:18:24;;;;;;;;;;;19.10;50.60;;;;;;5068847;28;20030;-61
2023/12/03 04:20:50;;;;;;;;;;;19.00;50.60;;;;;;5037337;28;19924;-61
2023/12/03 04:23:15;;;;;;;;;;;19.10;50.50;;;;;;5054243;28;19929;-61
2023/12/03 04:25:41;;;;;;;;;;;19.10;50.50;;;;;;5055758;28;19933;-61
2023/12/03 04:28:06;;;;;;;;;;;19.10;50.60;;;;;;5036659;28;19924;-61
2023/12/03 04:30:32;;;;;;;;;;;19.10;50.50;;;;;;5037489;28;20380;-61
2023/12/03 04:32:57;;;;;;;;;;;19.10;50.50;;;;;;5037761;28;19968;-61
2023/12/03 04:35:23;;;;;;;;;;;19.10;50.60;;;;;;5036826;28;20668;-61
2023/12/03 04:37:48;;;;;;;;;;;19.10;50.50;;;;;;5037241;28;19960;-61
2023/12/03 04:40:14;;;;;;;;;;;19.20;50.50;;;;;;5054972;28;20369;-60
2023/12/03 04:42:40;;;;;;;;;;;19.20;50.60;;;;;;5020353;28;19975;-61
2023/12/03 04:45:07;;;;;;;;;;;19.20;50.50;;;;;;5055200;28;19933;-61
2023/12/03 04:47:32;;;;;;;;;;;19.20;50.40;;;;;;5054101;28;19925;-61
2023/12/03 04:49:58;;;;;;;;;;;19.20;50.40;;;;;;5054399;28;19932;-61
2023/12/03 04:52:23;;;;;;;;;;;19.20;50.50;;;;;;5054821;28;20288;-61
2023/12/03 04:54:48;;;;;;;;;;;19.20;50.40;;;;;;5055547;28;19925;-60
2023/12/03 04:57:14;;;;;;;;;;;19.20;50.40;;;;;;5036163;28;20300;-60
2023/12/03 04:59:39;;;;;;;;;;;19.20;50.40;;;;;;5055077;28;19924;-61
2023/12/03 05:02:05;;;;;;;;;;;19.30;50.50;;;;;;5039329;28;20395;-61
2023/12/03 05:04:31;;;;;;;;;;;19.30;50.50;;;;;;5073054;28;19924;-61
2023/12/03 05:06:56;;;;;;;;;;;19.30;50.50;;;;;;5055632;28;19970;-60
2023/12/03 05:09:21;;;;;;;;;;;19.30;50.50;;;;;;5056631;28;20022;-60
2023/12/03 05:11:48;;;;;;;;;;;19.30;50.50;;;;;;5056449;28;19925;-60
2023/12/03 05:14:14;;;;;;;;;;;19.30;50.50;;;;;;5074418;28;19925;-60
2023/12/03 05:16:39;;;;;;;;;;;19.30;50.50;;;;;;5057002;28;19921;-60
2023/12/03 05:19:05;;;;;;;;;;;19.40;50.50;;;;;;5055957;28;19951;-61
2023/12/03 05:21:30;;;;;;;;;;;19.30;50.50;;;;;;5074330;28;19928;-60
2023/12/03 05:23:56;;;;;;;;;;;19.40;50.50;;;;;;5074112;28;19955;-60
2023/12/03 05:26:21;;;;;;;;;;;19.30;50.50;;;;;;5074105;28;20342;-60
2023/12/03 05:28:47;;;;;;;;;;;19.40;50.50;;;;;;5056553;28;19925;-60
2023/12/03 05:31:12;;;;;;;;;;;19.40;50.50;;;;;;5056628;28;19925;-61
2023/12/03 05:33:38;;;;;;;;;;;19.40;50.50;;;;;;5073966;28;19924;-60
2023/12/03 05:36:03;;;;;;;;;;;19.40;50.60;;;;;;5055566;28;19920;-61
2023/12/03 05:38:29;;;;;;;;;;;19.40;50.60;;;;;;5073688;28;19947;-61
2023/12/03 05:40:54;;;;;;;;;;;19.40;50.50;;;;;;5073770;28;20015;-60
2023/12/03 05:43:20;;;;;;;;;;;19.40;50.50;;;;;;5074363;28;20269;-60
2023/12/03 05:45:45;;;;;;;;;;;19.40;50.50;;;;;;5073780;28;20283;-60
2023/12/03 05:48:11;;;;;;;;;;;19.40;50.50;;;;;;5074036;28;20062;-61
2023/12/03 05:50:37;;;;;;;;;;;19.50;50.50;;;;;;5073795;28;20020;-61
2023/12/03 05:53:02;;;;;;;;;;;19.50;50.50;;;;;;5072745;28;20019;-61
2023/12/03 05:55:28;;;;;;;;;;;19.50;50.50;;;;;;5073968;28;19920;-61
2023/12/03 05:57:53;;;;;;;;;;;19.50;50.50;;;;;;5073300;28;19924;-61
2023/12/03 06:00:19;;;;;;;;;;;19.50;50.50;;;;;;5073538;28;19925;-60
2023/12/03 06:02:45;;;;;;;;;;;19.50;50.50;;;;;;5055929;28;19924;-61
2023/12/03 06:05:10;;;;;;;;;;;19.50;51.20;;;;;;5073554;28;19924;-61
2023/12/03 06:07:36;;;;;;;;;;;19.50;50.50;;;;;;5072643;28;19928;-61
2023/12/03 06:10:01;;;;;;;;;;;19.50;50.50;;;;;;5073477;28;20384;-61
2023/12/03 06:12:27;;;;;;;;;;;19.50;50.50;;;;;;5055700;28;19931;-61
2023/12/03 06:14:52;;;;;;;;;;;19.60;50.60;;;;;;5072216;28;19924;-61
2023/12/03 06:17:18;;;;;;;;;;;19.50;50.50;;;;;;5073319;28;19928;-61
2023/12/03 06:19:44;;;;;;;;;;;19.50;50.50;;;;;;5073500;28;20015;-61
2023/12/03 06:22:09;;;;;;;;;;;19.60;50.50;;;;;;5054297;28;19931;-61
2023/12/03 06:24:35;;;;;;;;;;;19.50;50.50;;;;;;5073295;28;20398;-61
2023/12/03 06:27:00;;;;;;;;;;;19.60;50.50;;;;;;5072948;28;19978;-61
2023/12/03 06:29:26;;;;;;;;;;;19.60;50.50;;;;;;5072512;28;20049;-60
2023/12/03 06:31:51;;;;;;;;;;;19.60;50.50;;;;;;5054867;28;19978;-60
2023/12/03 06:34:17;;;;;;;;;;;19.60;50.50;;;;;;5055631;28;19924;-60
2023/12/03 06:36:42;;;;;;;;;;;19.60;50.50;;;;;;5054130;28;20364;-61
2023/12/03 06:39:08;;;;;;;;;;;19.60;51.30;;;;;;5055245;28;19929;-61
2023/12/03 06:41:34;;;;;;;;;;;19.60;50.50;;;;;;5054648;28;19931;-61
2023/12/03 06:43:59;;;;;;;;;;;19.60;51.20;;;;;;5054683;28;19924;-61
2023/12/03 06:46:25;;;;;;;;;;;19.60;50.50;;;;;;5055412;28;20317;-61
2023/12/03 06:48:50;;;;;;;;;;;19.60;50.50;;;;;;5072205;28;19928;-61
2023/12/03 06:51:16;;;;;;;;;;;19.60;50.50;;;;;;5054388;28;20063;-60
2023/12/03 06:53:41;;;;;;;;;;;19.60;50.50;;;;;;5055235;28;19924;-61
2023/12/03 06:56:10;;;;;;;;;;;19.60;50.50;;;;;;5054102;28;20013;-61
2023/12/03 06:58:36;;;;;;;;;;;19.70;50.50;;;;;;5072380;28;19925;-61
2023/12/03 07:01:01;;;;;;;;;;;19.70;50.50;;;;;;5072934;28;19925;-61
2023/12/03 07:03:27;;;;;;;;;;;19.70;50.50;;;;;;5054323;28;19970;-61
2023/12/03 07:05:54;;;;;;;;;;;19.70;50.50;;;;;;5054446;28;19925;-60
2023/12/03 07:08:20;;;;;;;;;;;19.70;50.40;;;;;;5054054;28;19979;-60
2023/12/03 07:10:45;;;;;;;;;;;19.70;50.50;;;;;;5056823;28;19968;-60
2023/12/03 07:13:11;;;;;;;;;;;19.70;50.60;;;;;;5058734;28;20906;-61
2023/12/03 07:15:36;;;;;;;;;;;19.70;50.50;;;;;;5077101;28;19925;-60
2023/12/03 07:18:03;;;;;;;;;;;19.70;50.60;;;;;;5076216;28;19924;-60
2023/12/03 07:20:28;;;;;;;;;;;19.70;50.70;;;;;;5058904;28;20303;-60
2023/12/03 07:22:55;;;;;;;;;;;19.70;50.70;;;;;;5075718;28;19970;-60
2023/12/03 07:25:24;;;;;;;;;;;19.70;50.80;;;;;;5058064;28;19924;-60
2023/12/03 07:27:49;;;;;;;;;;;19.70;50.90;;;;;;5059210;28;19978;-60
2023/12/03 07:30:15;;;;;;;;;;;19.70;51.10;;;;;;5076243;28;19929;-60
2023/12/03 07:32:40;;;;;;;;;;;19.70;51.20;;;;;;5057512;28;19925;-60
2023/12/03 07:35:06;;;;;;;;;;;19.80;51.40;;;;;;5069659;28;20451;-60
2023/12/03 07:37:31;;;;;;;;;;;19.80;51.60;;;;;;5075652;28;19924;-60
2023/12/03 07:39:57;;;;;;;;;;;19.80;51.60;;;;;;5057845;28;20028;-60
2023/12/03 07:42:24;;;;;;;;;;;19.80;51.70;;;;;;5038731;28;19925;-60
2023/12/03 07:44:50;;;;;;;;;;;19.80;51.80;;;;;;5053910;28;20331;-60
2023/12/03 07:47:15;;;;;;;;;;;19.80;51.90;;;;;;5075319;28;19928;-60
2023/12/03 07:49:40;;;;;;;;;;;19.80;52.10;;;;;;5058046;28;19928;-60
2023/12/03 07:52:06;;;;;;;;;;;19.80;52.20;;;;;;5074707;28;19924;-60
2023/12/03 07:54:31;;;;;;;;;;;19.80;52.40;;;;;;5075804;28;19924;-60
2023/12/03 07:56:57;;;;;;;;;;;19.80;52.40;;;;;;5076084;28;19967;-60
2023/12/03 07:59:22;;;;;;;;;;;19.90;52.50;;;;;;5057687;28;19932;-61
2023/12/03 08:01:48;;;;;;;;;;;19.90;52.60;;;;;;5075964;28;19925;-61
2023/12/03 08:04:13;;;;;;;;;;;19.90;52.70;;;;;;5057972;28;19924;-60
2023/12/03 08:06:39;;;;;;;;;;;19.90;52.80;;;;;;5074337;28;19932;-60
2023/12/03 08:09:05;;;;;;;;;;;19.90;52.80;;;;;;5057552;28;19978;-60
2023/12/03 08:11:30;;;;;;;;;;;19.90;52.90;;;;;;5076135;28;19947;-61
2023/12/03 08:13:56;;;;;;;;;;;20.00;52.90;;;;;;5057191;28;19943;-61
2023/12/03 08:16:22;;;;;;;;;;;19.90;52.90;;;;;;5057759;28;19927;-60
2023/12/03 08:18:48;;;;;;;;;;;20.00;53.00;;;;;;5056872;28;19924;-60
2023/12/03 08:21:13;;;;;;;;;;;20.00;52.90;;;;;;5056597;28;19989;-61
2023/12/03 08:23:40;;;;;;;;;;;20.00;52.90;;;;;;5075281;28;19924;-60
2023/12/03 08:26:05;;;;;;;;;;;20.00;52.90;;;;;;5074837;28;19929;-60
2023/12/03 08:28:31;;;;;;;;;;;20.00;52.90;;;;;;5074888;28;20734;-60
2023/12/03 08:30:57;;;;;;;;;;;20.00;52.90;;;;;;5057738;28;20398;-60
2023/12/03 08:33:22;;;;;;;;;;;20.00;52.90;;;;;;5056797;28;19925;-60
2023/12/03 08:35:48;;;;;;;;;;;20.00;52.90;;;;;;5056173;28;20012;-60
2023/12/03 08:38:13;;;;;;;;;;;20.00;52.90;;;;;;5074490;28;19977;-60
2023/12/03 08:40:39;;;;;;;;;;;20.00;52.80;;;;;;5046995;28;19920;-60
2023/12/03 08:43:05;;;;;;;;;;;20.00;52.80;;;;;;5046415;28;19970;-60
2023/12/03 08:45:32;;;;;;;;;;;20.00;52.90;;;;;;5065028;28;19931;-61
2023/12/03 08:47:57;;;;;;;;;;;20.00;53.00;;;;;;5042709;28;20336;-61
2023/12/03 08:50:28;;;;;;;;;;;20.00;53.10;;;;;;5062666;28;19978;-60
2023/12/03 08:52:54;;;;;;;;;;;20.00;53.20;;;;;;5064920;28;19932;-60
2023/12/03 08:55:19;;;;;;;;;;;20.00;53.20;;;;;;5061648;28;19925;-60
2023/12/03 08:57:45;;;;;;;;;;;20.00;53.30;;;;;;5064633;28;20019;-60
2023/12/03 09:00:12;;;;;;;;;;;20.00;53.40;;;;;;5065249;28;19925;-60
2023/12/03 09:02:38;;;;;;;;;;;20.00;53.50;;;;;;5063019;28;19935;-60
2023/12/03 09:05:04;;;;;;;;;;;20.00;53.50;;;;;;5064741;28;20276;-60
2023/12/03 09:07:30;;;;;;;;;;;20.00;53.50;;;;;;5046898;28;20103;-61
2023/12/03 09:09:56;;;;;;;;;;;20.00;53.50;;;;;;5064604;28;19928;-60
2023/12/03 09:12:22;;;;;;;;;;;20.00;53.50;;;;;;5063842;28;19932;-61
2023/12/03 09:14:47;;;;;;;;;;;20.00;53.50;;;;;;5064461;28;19924;-60
2023/12/03 09:17:13;;;;;;;;;;;20.00;53.50;;;;;;5046332;28;20392;-60
2023/12/03 09:19:38;;;;;;;;;;;20.00;53.40;;;;;;5065726;28;20385;-59
2023/12/03 09:22:04;;;;;;;;;;;20.00;53.50;;;;;;5048515;28;19972;-61
2023/12/03 09:24:29;;;;;;;;;;;20.00;53.50;;;;;;5045833;28;20395;-62
2023/12/03 09:26:55;;;;;;;;;;;20.00;53.50;;;;;;5046896;28;19932;-61
2023/12/03 09:29:20;;;;;;;;;;;20.00;53.50;;;;;;5063339;28;19972;-60
2023/12/03 09:31:46;;;;;;;;;;;20.00;53.60;;;;;;5045655;28;20287;-60
2023/12/03 09:34:11;;;;;;;;;;;20.00;53.60;;;;;;5065118;28;19932;-61
2023/12/03 09:36:37;;;;;;;;;;;20.00;53.50;;;;;;5056689;28;19948;-61
2023/12/03 09:39:04;;;;;;;;;;;20.00;53.50;;;;;;5055287;28;20015;-61
2023/12/03 09:41:30;;;;;;;;;;;20.00;53.60;;;;;;5074249;28;20300;-61
2023/12/03 09:44:02;;;;;;;;;;;20.00;53.50;;;;;;5072045;28;20392;-60
2023/12/03 09:46:31;;;;;;;;;;;20.00;53.10;;;;;;5041539;28;19947;-61
2023/12/03 09:48:58;;;;;;;;;;;20.00;53.50;;;;;;5056236;28;19931;-60
2023/12/03 09:51:24;;;;;;;;;;;20.00;53.50;;;;;;5039437;28;19932;-60
2023/12/03 09:53:49;;;;;;;;;;;20.00;53.60;;;;;;5049010;28;19929;-60
2023/12/03 09:56:15;;;;;;;;;;;20.00;53.70;;;;;;5044616;28;20451;-60
2023/12/03 09:58:42;;;;;;;;;;;20.00;53.80;;;;;;5034421;28;19933;-61
2023/12/03 10:01:07;;;;;;;;;;;20.00;53.70;;;;;;5019324;28;19979;-61
2023/12/03 10:03:33;;;;;;;;;;;20.00;53.70;;;;;;5053890;28;19920;-61
2023/12/03 10:05:58;;;;;;;;;;;20.00;53.50;;;;;;5035010;28;20458;-61
2023/12/03 10:08:24;;;;;;;;;;;20.00;53.50;;;;;;5036137;28;19925;-62
2023/12/03 10:10:54;;;;;;;;;;;20.00;53.40;;;;;;5036251;28;19925;-61
2023/12/03 10:13:20;;;;;;;;;;;20.00;53.30;;;;;;5035574;28;19925;-60
2023/12/03 10:15:45;;;;;;;;;;;20.00;53.20;;;;;;5035982;28;19924;-61
2023/12/03 10:18:11;;;;;;;;;;;20.00;53.20;;;;;;5035480;28;20525;-60
2023/12/03 10:20:36;;;;;;;;;;;20.00;53.10;;;;;;5035064;28;19975;-60
2023/12/03 10:23:02;;;;;;;;;;;20.00;53.20;;;;;;5035121;28;19925;-61
2023/12/03 10:25:34;;;;;;;;;;;20.00;53.20;;;;;;5035724;28;19931;-61
2023/12/03 10:28:00;;;;;;;;;;;20.00;53.10;;;;;;5052684;28;20012;-61
2023/12/03 10:30:26;;;;;;;;;;;20.00;53.10;;;;;;5035937;28;19929;-61
2023/12/03 10:32:51;;;;;;;;;;;20.00;53.10;;;;;;5053289;28;20415;-61
2023/12/03 10:35:20;;;;;;;;;;;20.00;53.00;;;;;;5034719;28;19979;-60
2023/12/03 10:37:46;;;;;;;;;;;20.00;53.00;;;;;;5053562;28;19991;-60
2023/12/03 10:40:12;;;;;;;;;;;20.00;53.10;;;;;;5035243;28;20304;-60
2023/12/03 10:42:37;;;;;;;;;;;20.00;53.00;;;;;;5052694;28;19932;-61
2023/12/03 10:45:07;;;;;;;;;;;20.00;53.00;;;;;;5067883;28;19924;-61
2023/12/03 10:47:33;;;;;;;;;;;20.00;53.00;;;;;;5073295;28;19925;-60
2023/12/03 10:49:58;;;;;;;;;;;20.00;52.90;;;;;;5054611;28;19924;-61
2023/12/03 10:52:24;;;;;;;;;;;20.00;52.90;;;;;;5055483;28;19931;-60
2023/12/03 10:54:49;;;;;;;;;;;20.00;52.90;;;;;;5055165;28;20018;-60
2023/12/03 10:57:15;;;;;;;;;;;19.90;53.10;;;;;;5066630;28;20296;-60
2023/12/03 10:59:41;;;;;;;;;;;19.90;52.90;;;;;;5035621;28;20277;-60
2023/12/03 11:02:11;;;;;;;;;;;19.90;52.80;;;;;;5017801;28;19982;-60
2023/12/03 11:04:55;;;;;;;;;;;19.90;52.80;;;;;;5019444;28;19955;-60
2023/12/03 11:07:20;;;;;;;;;;;19.90;52.80;;;;;;5053145;28;19932;-60
2023/12/03 11:09:46;;;;;;;;;;;20.00;52.80;;;;;;5034321;28;19932;-61
2023/12/03 11:12:11;;;;;;;;;;;20.00;52.80;;;;;;5035129;28;19933;-60
2023/12/03 11:14:37;;;;;;;;;;;19.90;52.70;;;;;;5018794;28;20296;-61
2023/12/03 11:17:11;;;;;;;;;;;20.00;52.70;;;;;;5017601;28;20007;-61
2023/12/03 11:19:37;;;;;;;;;;;19.90;52.70;;;;;;5035113;28;19924;-61
2023/12/03 11:22:15;;;;;;;;;;;19.90;52.60;;;;;;5018437;28;20008;-60
2023/12/03 11:24:47;;;;;;;;;;;20.00;52.60;;;;;;5017873;28;20380;-60
2023/12/03 11:27:12;;;;;;;;;;;19.90;52.50;;;;;;5034852;28;19955;-61
2023/12/03 11:29:51;;;;;;;;;;;19.90;53.20;;;;;;5034680;28;19951;-60
2023/12/03 11:32:17;;;;;;;;;;;19.90;52.50;;;;;;5046183;28;19928;-60
2023/12/03 11:34:42;;;;;;;;;;;19.90;52.50;;;;;;5035059;28;19925;-61
2023/12/03 11:37:08;;;;;;;;;;;19.90;52.50;;;;;;5033465;28;19931;-60
2023/12/03 11:39:36;;;;;;;;;;;19.90;52.40;;;;;;5034635;28;20376;-61
2023/12/03 11:42:03;;;;;;;;;;;19.90;52.30;;;;;;5034610;28;20388;-61
2023/12/03 11:44:29;;;;;;;;;;;19.90;52.30;;;;;;5034503;28;19943;-61
2023/12/03 11:47:00;;;;;;;;;;;19.90;52.20;;;;;;5034690;28;20388;-61
2023/12/03 11:49:27;;;;;;;;;;;19.90;52.20;;;;;;5034693;28;19935;-61
2023/12/03 11:51:52;;;;;;;;;;;19.90;52.20;;;;;;5017495;28;20381;-61
2023/12/03 11:54:21;;;;;;;;;;;19.90;52.20;;;;;;5052746;28;20039;-61
2023/12/03 11:56:46;;;;;;;;;;;19.90;52.20;;;;;;5037069;28;19951;-61
2023/12/03 11:59:14;;;;;;;;;;;19.90;52.30;;;;;;5037495;28;20345;-61
2023/12/03 12:01:39;;;;;;;;;;;19.80;52.20;;;;;;5038438;28;20384;-61
2023/12/03 12:04:05;;;;;;;;;;;19.80;52.20;;;;;;5037912;28;19959;-61
2023/12/03 12:06:31;;;;;;;;;;;19.90;52.20;;;;;;5037468;28;20395;-61
2023/12/03 12:08:58;;;;;;;;;;;19.90;52.20;;;;;;5038035;28;19928;-61
2023/12/03 12:11:24;;;;;;;;;;;19.90;52.20;;;;;;5038583;28;19928;-61
2023/12/03 12:13:49;;;;;;;;;;;19.80;52.20;;;;;;5055449;28;20368;-61
2023/12/03 12:16:15;;;;;;;;;;;19.80;52.10;;;;;;5056194;28;19929;-61
2023/12/03 12:18:40;;;;;;;;;;;19.80;52.10;;;;;;5038105;28;20368;-61
2023/12/03 12:21:07;;;;;;;;;;;19.80;52.10;;;;;;5036610;28;19972;-61
2023/12/03 12:23:32;;;;;;;;;;;19.80;52.10;;;;;;5055739;28;19929;-61
2023/12/03 12:25:57;;;;;;;;;;;19.80;52.10;;;;;;5055599;28;19979;-61
2023/12/03 12:28:23;;;;;;;;;;;19.80;52.10;;;;;;5055070;28;20415;-61
2023/12/03 12:30:48;;;;;;;;;;;19.80;52.10;;;;;;5038197;28;19924;-61
2023/12/03 12:33:16;;;;;;;;;;;19.80;52.20;;;;;;5037856;28;20280;-61
2023/12/03 12:35:42;;;;;;;;;;;19.80;52.10;;;;;;5036891;28;19967;-61
2023/12/03 12:38:08;;;;;;;;;;;19.80;52.10;;;;;;5055463;28;19928;-61
2023/12/03 12:40:41;;;;;;;;;;;19.80;52.10;;;;;;5037279;28;19944;-61
2023/12/03 12:43:10;;;;;;;;;;;19.80;52.10;;;;;;5037801;28;20023;-61
2023/12/03 12:45:36;;;;;;;;;;;19.80;52.10;;;;;;5037571;28;19936;-61
2023/12/03 12:48:02;;;;;;;;;;;19.80;52.00;;;;;;5054567;28;19925;-61
2023/12/03 12:50:34;;;;;;;;;;;19.80;52.00;;;;;;5037330;28;19932;-61
2023/12/03 12:53:00;;;;;;;;;;;19.80;52.00;;;;;;5036966;28;19925;-61
2023/12/03 12:55:29;;;;;;;;;;;19.80;52.00;;;;;;5036983;28;19924;-61
2023/12/03 12:57:54;;;;;;;;;;;19.90;52.10;;;;;;5036972;28;19975;-61
2023/12/03 13:00:19;;;;;;;;;;;19.90;52.00;;;;;;5037539;28;20001;-61
2023/12/03 13:02:45;;;;;;;;;;;19.80;52.00;;;;;;5019943;28;19925;-61
2023/12/03 13:05:11;;;;;;;;;;;19.90;52.00;;;;;;5037070;28;20282;-60
2023/12/03 13:07:36;;;;;;;;;;;19.90;51.90;;;;;;5035910;28;19936;-61
2023/12/03 13:10:03;;;;;;;;;;;19.90;51.90;;;;;;5036088;28;19925;-61
2023/12/03 13:12:29;;;;;;;;;;;19.90;52.00;;;;;;5055062;28;19925;-61
2023/12/03 13:14:54;;;;;;;;;;;19.90;51.90;;;;;;5036779;28;20035;-61
2023/12/03 13:17:21;;;;;;;;;;;19.90;51.90;;;;;;5036465;28;19924;-61
2023/12/03 13:19:47;;;;;;;;;;;19.90;51.90;;;;;;5036828;28;19928;-61
2023/12/03 13:22:13;;;;;;;;;;;19.90;51.90;;;;;;5039264;28;19947;-60
2023/12/03 13:24:39;;;;;;;;;;;20.00;51.90;;;;;;5044749;28;19925;-61
2023/12/03 13:27:06;;;;;;;;;;;20.00;51.90;;;;;;5036538;28;20032;-60
2023/12/03 13:29:31;;;;;;;;;;;20.00;51.90;;;;;;5036866;28;19928;-61
2023/12/03 13:31:57;;;;;;;;;;;20.00;51.90;;;;;;5053420;28;19931;-60
2023/12/03 13:34:24;;;;;;;;;;;20.00;51.80;;;;;;5036507;28;20420;-60
2023/12/03 13:36:50;;;;;;;;;;;20.00;51.90;;;;;;5053922;28;19968;-60
2023/12/03 13:39:15;;;;;;;;;;;20.00;51.90;;;;;;5036305;28;20023;-60
2023/12/03 13:41:42;;;;;;;;;;;20.00;51.90;;;;;;5054504;28;19925;-60
2023/12/03 13:44:08;;;;;;;;;;;20.00;51.80;;;;;;5019423;28;19925;-60
2023/12/03 13:46:33;;;;;;;;;;;20.00;51.80;;;;;;5036638;28;20368;-60
2023/12/03 13:48:59;;;;;;;;;;;20.00;51.80;;;;;;5054054;28;19979;-60
2023/12/03 13:51:25;;;;;;;;;;;20.00;51.80;;;;;;5035906;28;19925;-60
2023/12/03 13:53:51;;;;;;;;;;;19.90;51.80;;;;;;5019781;28;19925;-60
2023/12/03 13:56:17;;;;;;;;;;;19.90;51.70;;;;;;5054167;28;19931;-61
2023/12/03 13:58:42;;;;;;;;;;;19.90;51.80;;;;;;5035449;28;19951;-60
2023/12/03 14:01:08;;;;;;;;;;;20.00;51.80;;;;;;5036018;28;19932;-61
2023/12/03 14:03:33;;;;;;;;;;;19.90;51.80;;;;;;5036457;28;19932;-61
2023/12/03 14:05:58;;;;;;;;;;;19.90;51.80;;;;;;5052848;28;19924;-61
2023/12/03 14:08:24;;;;;;;;;;;20.00;51.80;;;;;;5035842;28;19928;-60